<?xml version="1.0" encoding="utf-8"?>
<gpx xmlns:xsi="http://www.w3.org/2001/XMLSchema-instance" xmlns:xsd="http://www.w3.org/2001/XMLSchema" version="1.1" creator="Shapelink.com" xmlns="http://www.topografix.com/GPX/1/1" xmlns:gpxtpx="http://www.garmin.com/xmlschemas/TrackPointExtension/v1">
  <metadata>
    <name>Løping 6.41 km, 2014-05-07</name>
    <desc></desc>
    <author><name>Carl Grundberg</name></author> 
    <time>2014-05-07T17:54:53Z</time>
  </metadata>
  <trk>
    <name>Løping 6.41 km, 2014-05-07</name>
    <trkseg>
      <trkpt lat="56.3491886" lon="13.6463403">
        <ele>107.805</ele>
        <time>2014-05-07T17:54:53Z</time>
      </trkpt>
      <trkpt lat="56.3492494" lon="13.6462485">
        <ele>107.324</ele>
        <time>2014-05-07T17:54:59Z</time>
      </trkpt>
      <trkpt lat="56.3493072" lon="13.646098">
        <ele>107.324</ele>
        <time>2014-05-07T17:55:06Z</time>
      </trkpt>
      <trkpt lat="56.3493039" lon="13.6458974">
        <ele>107.324</ele>
        <time>2014-05-07T17:55:11Z</time>
      </trkpt>
      <trkpt lat="56.3492255" lon="13.6457781">
        <ele>107.805</ele>
        <time>2014-05-07T17:55:15Z</time>
      </trkpt>
      <trkpt lat="56.3490793" lon="13.6456823">
        <ele>106.844</ele>
        <time>2014-05-07T17:55:21Z</time>
      </trkpt>
      <trkpt lat="56.3489323" lon="13.6455829">
        <ele>105.882</ele>
        <time>2014-05-07T17:55:27Z</time>
      </trkpt>
      <trkpt lat="56.3488158" lon="13.6454836">
        <ele>105.882</ele>
        <time>2014-05-07T17:55:32Z</time>
      </trkpt>
      <trkpt lat="56.3486174" lon="13.6453471">
        <ele>106.363</ele>
        <time>2014-05-07T17:55:39Z</time>
      </trkpt>
      <trkpt lat="56.3484165" lon="13.6452375">
        <ele>107.324</ele>
        <time>2014-05-07T17:55:46Z</time>
      </trkpt>
      <trkpt lat="56.348256" lon="13.6451229">
        <ele>107.324</ele>
        <time>2014-05-07T17:55:52Z</time>
      </trkpt>
      <trkpt lat="56.3481231" lon="13.645021">
        <ele>108.286</ele>
        <time>2014-05-07T17:55:57Z</time>
      </trkpt>
      <trkpt lat="56.347984" lon="13.644949">
        <ele>108.286</ele>
        <time>2014-05-07T17:56:02Z</time>
      </trkpt>
      <trkpt lat="56.3478548" lon="13.6448993">
        <ele>108.766</ele>
        <time>2014-05-07T17:56:07Z</time>
      </trkpt>
      <trkpt lat="56.3476783" lon="13.6447904">
        <ele>108.286</ele>
        <time>2014-05-07T17:56:14Z</time>
      </trkpt>
      <trkpt lat="56.3476389" lon="13.6447381">
        <ele>108.286</ele>
        <time>2014-05-07T17:56:16Z</time>
      </trkpt>
      <trkpt lat="56.3474846" lon="13.6446921">
        <ele>108.766</ele>
        <time>2014-05-07T17:56:21Z</time>
      </trkpt>
      <trkpt lat="56.3472629" lon="13.6445272">
        <ele>109.728</ele>
        <time>2014-05-07T17:56:29Z</time>
      </trkpt>
      <trkpt lat="56.3470757" lon="13.6443735">
        <ele>110.208</ele>
        <time>2014-05-07T17:56:36Z</time>
      </trkpt>
      <trkpt lat="56.3469044" lon="13.6441928">
        <ele>109.728</ele>
        <time>2014-05-07T17:56:43Z</time>
      </trkpt>
      <trkpt lat="56.3468366" lon="13.6441295">
        <ele>109.247</ele>
        <time>2014-05-07T17:56:46Z</time>
      </trkpt>
      <trkpt lat="56.3467054" lon="13.6439592">
        <ele>108.766</ele>
        <time>2014-05-07T17:56:52Z</time>
      </trkpt>
      <trkpt lat="56.3466069" lon="13.6437839">
        <ele>108.766</ele>
        <time>2014-05-07T17:56:57Z</time>
      </trkpt>
      <trkpt lat="56.346502" lon="13.643617">
        <ele>108.766</ele>
        <time>2014-05-07T17:57:02Z</time>
      </trkpt>
      <trkpt lat="56.3463911" lon="13.6433468">
        <ele>109.728</ele>
        <time>2014-05-07T17:57:09Z</time>
      </trkpt>
      <trkpt lat="56.3462912" lon="13.6430967">
        <ele>109.247</ele>
        <time>2014-05-07T17:57:15Z</time>
      </trkpt>
      <trkpt lat="56.3461787" lon="13.6428229">
        <ele>110.689</ele>
        <time>2014-05-07T17:57:22Z</time>
      </trkpt>
      <trkpt lat="56.3460757" lon="13.6425523">
        <ele>111.17</ele>
        <time>2014-05-07T17:57:29Z</time>
      </trkpt>
      <trkpt lat="56.3459881" lon="13.6423012">
        <ele>111.65</ele>
        <time>2014-05-07T17:57:35Z</time>
      </trkpt>
      <trkpt lat="56.3458949" lon="13.6420678">
        <ele>112.131</ele>
        <time>2014-05-07T17:57:41Z</time>
      </trkpt>
      <trkpt lat="56.3458109" lon="13.6418326">
        <ele>112.131</ele>
        <time>2014-05-07T17:57:47Z</time>
      </trkpt>
      <trkpt lat="56.3457456" lon="13.641584">
        <ele>112.131</ele>
        <time>2014-05-07T17:57:53Z</time>
      </trkpt>
      <trkpt lat="56.3457198" lon="13.6412965">
        <ele>112.131</ele>
        <time>2014-05-07T17:57:59Z</time>
      </trkpt>
      <trkpt lat="56.3456807" lon="13.6409783">
        <ele>112.131</ele>
        <time>2014-05-07T17:58:06Z</time>
      </trkpt>
      <trkpt lat="56.3456463" lon="13.6407583">
        <ele>111.65</ele>
        <time>2014-05-07T17:58:11Z</time>
      </trkpt>
      <trkpt lat="56.3456379" lon="13.6404318">
        <ele>110.689</ele>
        <time>2014-05-07T17:58:18Z</time>
      </trkpt>
      <trkpt lat="56.3456501" lon="13.6401893">
        <ele>110.208</ele>
        <time>2014-05-07T17:58:23Z</time>
      </trkpt>
      <trkpt lat="56.3456228" lon="13.6398512">
        <ele>110.689</ele>
        <time>2014-05-07T17:58:30Z</time>
      </trkpt>
      <trkpt lat="56.3456098" lon="13.6395528">
        <ele>111.17</ele>
        <time>2014-05-07T17:58:36Z</time>
      </trkpt>
      <trkpt lat="56.3455875" lon="13.6392691">
        <ele>112.131</ele>
        <time>2014-05-07T17:58:42Z</time>
      </trkpt>
      <trkpt lat="56.3455729" lon="13.6390721">
        <ele>113.092</ele>
        <time>2014-05-07T17:58:47Z</time>
      </trkpt>
      <trkpt lat="56.3455394" lon="13.6390318">
        <ele>112.612</ele>
        <time>2014-05-07T17:58:51Z</time>
      </trkpt>
      <trkpt lat="56.3454761" lon="13.6390145">
        <ele>113.092</ele>
        <time>2014-05-07T17:59:28Z</time>
      </trkpt>
      <trkpt lat="56.3454565" lon="13.6390039">
        <ele>115.496</ele>
        <time>2014-05-07T17:59:39Z</time>
      </trkpt>
      <trkpt lat="56.345442" lon="13.6390015">
        <ele>114.054</ele>
        <time>2014-05-07T17:59:50Z</time>
      </trkpt>
      <trkpt lat="56.3454415" lon="13.6389782">
        <ele>114.054</ele>
        <time>2014-05-07T17:59:53Z</time>
      </trkpt>
      <trkpt lat="56.34544" lon="13.6389119">
        <ele>114.054</ele>
        <time>2014-05-07T17:59:56Z</time>
      </trkpt>
      <trkpt lat="56.34547" lon="13.6387034">
        <ele>113.092</ele>
        <time>2014-05-07T18:00:01Z</time>
      </trkpt>
      <trkpt lat="56.3454795" lon="13.6386529">
        <ele>113.092</ele>
        <time>2014-05-07T18:00:02Z</time>
      </trkpt>
      <trkpt lat="56.3455409" lon="13.6383603">
        <ele>113.092</ele>
        <time>2014-05-07T18:00:08Z</time>
      </trkpt>
      <trkpt lat="56.3455633" lon="13.6382649">
        <ele>113.573</ele>
        <time>2014-05-07T18:00:10Z</time>
      </trkpt>
      <trkpt lat="56.3457156" lon="13.6381494">
        <ele>113.092</ele>
        <time>2014-05-07T18:00:16Z</time>
      </trkpt>
      <trkpt lat="56.3458351" lon="13.6379507">
        <ele>113.092</ele>
        <time>2014-05-07T18:00:21Z</time>
      </trkpt>
      <trkpt lat="56.3459212" lon="13.6377554">
        <ele>113.573</ele>
        <time>2014-05-07T18:00:25Z</time>
      </trkpt>
      <trkpt lat="56.3460382" lon="13.6376254">
        <ele>114.054</ele>
        <time>2014-05-07T18:00:29Z</time>
      </trkpt>
      <trkpt lat="56.3461745" lon="13.6375804">
        <ele>114.534</ele>
        <time>2014-05-07T18:00:34Z</time>
      </trkpt>
      <trkpt lat="56.3463424" lon="13.6375351">
        <ele>113.573</ele>
        <time>2014-05-07T18:00:40Z</time>
      </trkpt>
      <trkpt lat="56.3463895" lon="13.6375029">
        <ele>113.573</ele>
        <time>2014-05-07T18:00:42Z</time>
      </trkpt>
      <trkpt lat="56.3464973" lon="13.6373659">
        <ele>113.573</ele>
        <time>2014-05-07T18:00:47Z</time>
      </trkpt>
      <trkpt lat="56.3465806" lon="13.6372291">
        <ele>114.534</ele>
        <time>2014-05-07T18:00:51Z</time>
      </trkpt>
      <trkpt lat="56.3467024" lon="13.6370607">
        <ele>115.496</ele>
        <time>2014-05-07T18:00:57Z</time>
      </trkpt>
      <trkpt lat="56.3467753" lon="13.6369913">
        <ele>115.496</ele>
        <time>2014-05-07T18:01:00Z</time>
      </trkpt>
      <trkpt lat="56.3468863" lon="13.6368614">
        <ele>116.457</ele>
        <time>2014-05-07T18:01:05Z</time>
      </trkpt>
      <trkpt lat="56.346934" lon="13.6367981">
        <ele>116.938</ele>
        <time>2014-05-07T18:01:07Z</time>
      </trkpt>
      <trkpt lat="56.3470383" lon="13.6367166">
        <ele>116.938</ele>
        <time>2014-05-07T18:01:11Z</time>
      </trkpt>
      <trkpt lat="56.3471927" lon="13.6366002">
        <ele>116.938</ele>
        <time>2014-05-07T18:01:17Z</time>
      </trkpt>
      <trkpt lat="56.3472894" lon="13.6365026">
        <ele>117.899</ele>
        <time>2014-05-07T18:01:21Z</time>
      </trkpt>
      <trkpt lat="56.3473457" lon="13.6364586">
        <ele>117.899</ele>
        <time>2014-05-07T18:01:23Z</time>
      </trkpt>
      <trkpt lat="56.3474188" lon="13.6364109">
        <ele>117.899</ele>
        <time>2014-05-07T18:01:27Z</time>
      </trkpt>
      <trkpt lat="56.3474538" lon="13.6363821">
        <ele>118.86</ele>
        <time>2014-05-07T18:01:29Z</time>
      </trkpt>
      <trkpt lat="56.3474966" lon="13.6362992">
        <ele>118.86</ele>
        <time>2014-05-07T18:01:32Z</time>
      </trkpt>
      <trkpt lat="56.3475155" lon="13.6362246">
        <ele>118.86</ele>
        <time>2014-05-07T18:01:34Z</time>
      </trkpt>
      <trkpt lat="56.3476011" lon="13.6359608">
        <ele>117.899</ele>
        <time>2014-05-07T18:01:40Z</time>
      </trkpt>
      <trkpt lat="56.3476366" lon="13.6357445">
        <ele>116.457</ele>
        <time>2014-05-07T18:01:45Z</time>
      </trkpt>
      <trkpt lat="56.3476408" lon="13.6356559">
        <ele>115.976</ele>
        <time>2014-05-07T18:01:47Z</time>
      </trkpt>
      <trkpt lat="56.3475483" lon="13.6354092">
        <ele>115.015</ele>
        <time>2014-05-07T18:01:53Z</time>
      </trkpt>
      <trkpt lat="56.3475284" lon="13.6353761">
        <ele>115.496</ele>
        <time>2014-05-07T18:01:55Z</time>
      </trkpt>
      <trkpt lat="56.3475094" lon="13.635331">
        <ele>116.457</ele>
        <time>2014-05-07T18:01:57Z</time>
      </trkpt>
      <trkpt lat="56.3474611" lon="13.635243">
        <ele>116.457</ele>
        <time>2014-05-07T18:02:02Z</time>
      </trkpt>
      <trkpt lat="56.3474617" lon="13.6351431">
        <ele>116.457</ele>
        <time>2014-05-07T18:02:07Z</time>
      </trkpt>
      <trkpt lat="56.347424" lon="13.6350535">
        <ele>115.496</ele>
        <time>2014-05-07T18:02:11Z</time>
      </trkpt>
      <trkpt lat="56.3474032" lon="13.634932">
        <ele>114.534</ele>
        <time>2014-05-07T18:02:15Z</time>
      </trkpt>
      <trkpt lat="56.3473842" lon="13.6348118">
        <ele>114.534</ele>
        <time>2014-05-07T18:02:20Z</time>
      </trkpt>
      <trkpt lat="56.34738" lon="13.6347623">
        <ele>114.534</ele>
        <time>2014-05-07T18:02:22Z</time>
      </trkpt>
      <trkpt lat="56.347378" lon="13.6345416">
        <ele>114.054</ele>
        <time>2014-05-07T18:02:29Z</time>
      </trkpt>
      <trkpt lat="56.3473316" lon="13.634407">
        <ele>113.573</ele>
        <time>2014-05-07T18:02:36Z</time>
      </trkpt>
      <trkpt lat="56.3472919" lon="13.6343125">
        <ele>113.573</ele>
        <time>2014-05-07T18:02:39Z</time>
      </trkpt>
      <trkpt lat="56.3472463" lon="13.6342102">
        <ele>113.573</ele>
        <time>2014-05-07T18:02:43Z</time>
      </trkpt>
      <trkpt lat="56.347242" lon="13.6341454">
        <ele>112.612</ele>
        <time>2014-05-07T18:02:48Z</time>
      </trkpt>
      <trkpt lat="56.3472609" lon="13.6340987">
        <ele>112.131</ele>
        <time>2014-05-07T18:02:52Z</time>
      </trkpt>
      <trkpt lat="56.3472419" lon="13.6340392">
        <ele>112.131</ele>
        <time>2014-05-07T18:02:58Z</time>
      </trkpt>
      <trkpt lat="56.3472458" lon="13.634019">
        <ele>112.131</ele>
        <time>2014-05-07T18:02:59Z</time>
      </trkpt>
      <trkpt lat="56.3472293" lon="13.6338468">
        <ele>112.131</ele>
        <time>2014-05-07T18:03:05Z</time>
      </trkpt>
      <trkpt lat="56.3471084" lon="13.6337464">
        <ele>112.612</ele>
        <time>2014-05-07T18:03:11Z</time>
      </trkpt>
      <trkpt lat="56.3470235" lon="13.6337046">
        <ele>112.131</ele>
        <time>2014-05-07T18:03:15Z</time>
      </trkpt>
      <trkpt lat="56.3469791" lon="13.6336776">
        <ele>112.131</ele>
        <time>2014-05-07T18:03:17Z</time>
      </trkpt>
      <trkpt lat="56.3468842" lon="13.6336474">
        <ele>112.612</ele>
        <time>2014-05-07T18:03:21Z</time>
      </trkpt>
      <trkpt lat="56.3468021" lon="13.6335724">
        <ele>112.612</ele>
        <time>2014-05-07T18:03:26Z</time>
      </trkpt>
      <trkpt lat="56.3467386" lon="13.633517">
        <ele>113.092</ele>
        <time>2014-05-07T18:03:29Z</time>
      </trkpt>
      <trkpt lat="56.3466893" lon="13.6334782">
        <ele>112.612</ele>
        <time>2014-05-07T18:03:31Z</time>
      </trkpt>
      <trkpt lat="56.3465857" lon="13.6334621">
        <ele>112.612</ele>
        <time>2014-05-07T18:03:36Z</time>
      </trkpt>
      <trkpt lat="56.3465054" lon="13.6334046">
        <ele>113.092</ele>
        <time>2014-05-07T18:03:40Z</time>
      </trkpt>
      <trkpt lat="56.3464677" lon="13.6333762">
        <ele>113.092</ele>
        <time>2014-05-07T18:03:42Z</time>
      </trkpt>
      <trkpt lat="56.346332" lon="13.6333289">
        <ele>112.612</ele>
        <time>2014-05-07T18:03:48Z</time>
      </trkpt>
      <trkpt lat="56.3462356" lon="13.6333124">
        <ele>114.054</ele>
        <time>2014-05-07T18:03:52Z</time>
      </trkpt>
      <trkpt lat="56.3461251" lon="13.6332988">
        <ele>114.534</ele>
        <time>2014-05-07T18:03:57Z</time>
      </trkpt>
      <trkpt lat="56.3460833" lon="13.6332689">
        <ele>114.534</ele>
        <time>2014-05-07T18:03:59Z</time>
      </trkpt>
      <trkpt lat="56.3460049" lon="13.6332765">
        <ele>114.054</ele>
        <time>2014-05-07T18:04:02Z</time>
      </trkpt>
      <trkpt lat="56.3459218" lon="13.6332331">
        <ele>114.534</ele>
        <time>2014-05-07T18:04:06Z</time>
      </trkpt>
      <trkpt lat="56.3458637" lon="13.6332238">
        <ele>114.534</ele>
        <time>2014-05-07T18:04:08Z</time>
      </trkpt>
      <trkpt lat="56.3457211" lon="13.6332347">
        <ele>114.534</ele>
        <time>2014-05-07T18:04:14Z</time>
      </trkpt>
      <trkpt lat="56.345584" lon="13.633244">
        <ele>115.015</ele>
        <time>2014-05-07T18:04:19Z</time>
      </trkpt>
      <trkpt lat="56.3454375" lon="13.6332241">
        <ele>114.534</ele>
        <time>2014-05-07T18:04:25Z</time>
      </trkpt>
      <trkpt lat="56.3454167" lon="13.6332127">
        <ele>114.054</ele>
        <time>2014-05-07T18:04:26Z</time>
      </trkpt>
      <trkpt lat="56.34531" lon="13.6331726">
        <ele>113.092</ele>
        <time>2014-05-07T18:04:31Z</time>
      </trkpt>
      <trkpt lat="56.3451903" lon="13.6331529">
        <ele>113.573</ele>
        <time>2014-05-07T18:04:36Z</time>
      </trkpt>
      <trkpt lat="56.3451318" lon="13.6331346">
        <ele>113.573</ele>
        <time>2014-05-07T18:04:38Z</time>
      </trkpt>
      <trkpt lat="56.345038" lon="13.6331306">
        <ele>113.573</ele>
        <time>2014-05-07T18:04:42Z</time>
      </trkpt>
      <trkpt lat="56.3449142" lon="13.6330988">
        <ele>114.534</ele>
        <time>2014-05-07T18:04:47Z</time>
      </trkpt>
      <trkpt lat="56.3447666" lon="13.633071">
        <ele>115.015</ele>
        <time>2014-05-07T18:04:53Z</time>
      </trkpt>
      <trkpt lat="56.3446587" lon="13.6330775">
        <ele>115.015</ele>
        <time>2014-05-07T18:04:58Z</time>
      </trkpt>
      <trkpt lat="56.3445343" lon="13.633061">
        <ele>115.015</ele>
        <time>2014-05-07T18:05:03Z</time>
      </trkpt>
      <trkpt lat="56.344462" lon="13.6330437">
        <ele>115.015</ele>
        <time>2014-05-07T18:05:06Z</time>
      </trkpt>
      <trkpt lat="56.3442994" lon="13.6329629">
        <ele>115.976</ele>
        <time>2014-05-07T18:05:12Z</time>
      </trkpt>
      <trkpt lat="56.3441609" lon="13.632933">
        <ele>115.496</ele>
        <time>2014-05-07T18:05:17Z</time>
      </trkpt>
      <trkpt lat="56.3440816" lon="13.6328954">
        <ele>115.015</ele>
        <time>2014-05-07T18:05:21Z</time>
      </trkpt>
      <trkpt lat="56.3439507" lon="13.6328191">
        <ele>115.976</ele>
        <time>2014-05-07T18:05:26Z</time>
      </trkpt>
      <trkpt lat="56.3438196" lon="13.6327629">
        <ele>115.976</ele>
        <time>2014-05-07T18:05:31Z</time>
      </trkpt>
      <trkpt lat="56.3436013" lon="13.6326555">
        <ele>116.457</ele>
        <time>2014-05-07T18:05:39Z</time>
      </trkpt>
      <trkpt lat="56.3434436" lon="13.6327255">
        <ele>116.938</ele>
        <time>2014-05-07T18:05:46Z</time>
      </trkpt>
      <trkpt lat="56.3433333" lon="13.6327038">
        <ele>116.457</ele>
        <time>2014-05-07T18:05:50Z</time>
      </trkpt>
      <trkpt lat="56.3432317" lon="13.6326725">
        <ele>115.496</ele>
        <time>2014-05-07T18:05:54Z</time>
      </trkpt>
      <trkpt lat="56.3431103" lon="13.6325427">
        <ele>115.496</ele>
        <time>2014-05-07T18:06:00Z</time>
      </trkpt>
      <trkpt lat="56.3429979" lon="13.632471">
        <ele>115.976</ele>
        <time>2014-05-07T18:06:05Z</time>
      </trkpt>
      <trkpt lat="56.3428861" lon="13.6324129">
        <ele>116.457</ele>
        <time>2014-05-07T18:06:10Z</time>
      </trkpt>
      <trkpt lat="56.3427551" lon="13.6322974">
        <ele>116.457</ele>
        <time>2014-05-07T18:06:16Z</time>
      </trkpt>
      <trkpt lat="56.3426226" lon="13.6321516">
        <ele>116.938</ele>
        <time>2014-05-07T18:06:22Z</time>
      </trkpt>
      <trkpt lat="56.3424836" lon="13.6319718">
        <ele>115.976</ele>
        <time>2014-05-07T18:06:29Z</time>
      </trkpt>
      <trkpt lat="56.3423711" lon="13.6317867">
        <ele>115.976</ele>
        <time>2014-05-07T18:06:35Z</time>
      </trkpt>
      <trkpt lat="56.3422657" lon="13.6315722">
        <ele>115.015</ele>
        <time>2014-05-07T18:06:41Z</time>
      </trkpt>
      <trkpt lat="56.3421807" lon="13.6313782">
        <ele>114.534</ele>
        <time>2014-05-07T18:06:46Z</time>
      </trkpt>
      <trkpt lat="56.3421137" lon="13.6310723">
        <ele>115.015</ele>
        <time>2014-05-07T18:06:53Z</time>
      </trkpt>
      <trkpt lat="56.342081" lon="13.6308478">
        <ele>114.054</ele>
        <time>2014-05-07T18:06:58Z</time>
      </trkpt>
      <trkpt lat="56.3420387" lon="13.6306064">
        <ele>113.573</ele>
        <time>2014-05-07T18:07:04Z</time>
      </trkpt>
      <trkpt lat="56.3420038" lon="13.6303616">
        <ele>112.612</ele>
        <time>2014-05-07T18:07:10Z</time>
      </trkpt>
      <trkpt lat="56.3419593" lon="13.6300697">
        <ele>112.131</ele>
        <time>2014-05-07T18:07:17Z</time>
      </trkpt>
      <trkpt lat="56.3419134" lon="13.6297832">
        <ele>112.131</ele>
        <time>2014-05-07T18:07:24Z</time>
      </trkpt>
      <trkpt lat="56.34187" lon="13.6294629">
        <ele>112.612</ele>
        <time>2014-05-07T18:07:31Z</time>
      </trkpt>
      <trkpt lat="56.3418673" lon="13.6291741">
        <ele>113.573</ele>
        <time>2014-05-07T18:07:37Z</time>
      </trkpt>
      <trkpt lat="56.3418895" lon="13.6288092">
        <ele>112.612</ele>
        <time>2014-05-07T18:07:45Z</time>
      </trkpt>
      <trkpt lat="56.3419128" lon="13.6285527">
        <ele>111.65</ele>
        <time>2014-05-07T18:07:51Z</time>
      </trkpt>
      <trkpt lat="56.3419362" lon="13.6283969">
        <ele>111.17</ele>
        <time>2014-05-07T18:07:55Z</time>
      </trkpt>
      <trkpt lat="56.3419539" lon="13.6281208">
        <ele>110.689</ele>
        <time>2014-05-07T18:08:02Z</time>
      </trkpt>
      <trkpt lat="56.3419688" lon="13.6279264">
        <ele>111.65</ele>
        <time>2014-05-07T18:08:07Z</time>
      </trkpt>
      <trkpt lat="56.3419738" lon="13.6278562">
        <ele>111.65</ele>
        <time>2014-05-07T18:08:09Z</time>
      </trkpt>
      <trkpt lat="56.3419751" lon="13.6277382">
        <ele>112.612</ele>
        <time>2014-05-07T18:08:12Z</time>
      </trkpt>
      <trkpt lat="56.3419772" lon="13.6276634">
        <ele>113.092</ele>
        <time>2014-05-07T18:08:14Z</time>
      </trkpt>
      <trkpt lat="56.3419925" lon="13.6273993">
        <ele>115.015</ele>
        <time>2014-05-07T18:08:20Z</time>
      </trkpt>
      <trkpt lat="56.3420351" lon="13.6271227">
        <ele>116.457</ele>
        <time>2014-05-07T18:08:26Z</time>
      </trkpt>
      <trkpt lat="56.3420775" lon="13.6268715">
        <ele>116.457</ele>
        <time>2014-05-07T18:08:32Z</time>
      </trkpt>
      <trkpt lat="56.34208" lon="13.6266751">
        <ele>117.418</ele>
        <time>2014-05-07T18:08:37Z</time>
      </trkpt>
      <trkpt lat="56.3420895" lon="13.6264648">
        <ele>117.418</ele>
        <time>2014-05-07T18:08:42Z</time>
      </trkpt>
      <trkpt lat="56.3420854" lon="13.6262453">
        <ele>118.379</ele>
        <time>2014-05-07T18:08:47Z</time>
      </trkpt>
      <trkpt lat="56.3421024" lon="13.6259898">
        <ele>119.341</ele>
        <time>2014-05-07T18:08:53Z</time>
      </trkpt>
      <trkpt lat="56.3420976" lon="13.6257587">
        <ele>120.302</ele>
        <time>2014-05-07T18:08:58Z</time>
      </trkpt>
      <trkpt lat="56.3420844" lon="13.6254998">
        <ele>121.744</ele>
        <time>2014-05-07T18:09:04Z</time>
      </trkpt>
      <trkpt lat="56.3420798" lon="13.6252625">
        <ele>123.186</ele>
        <time>2014-05-07T18:09:09Z</time>
      </trkpt>
      <trkpt lat="56.3420817" lon="13.6250606">
        <ele>124.147</ele>
        <time>2014-05-07T18:09:14Z</time>
      </trkpt>
      <trkpt lat="56.342104" lon="13.6248471">
        <ele>124.628</ele>
        <time>2014-05-07T18:09:19Z</time>
      </trkpt>
      <trkpt lat="56.3421262" lon="13.6245843">
        <ele>125.589</ele>
        <time>2014-05-07T18:09:25Z</time>
      </trkpt>
      <trkpt lat="56.3421584" lon="13.6243346">
        <ele>126.551</ele>
        <time>2014-05-07T18:09:31Z</time>
      </trkpt>
      <trkpt lat="56.3421771" lon="13.6241217">
        <ele>127.512</ele>
        <time>2014-05-07T18:09:36Z</time>
      </trkpt>
      <trkpt lat="56.3422153" lon="13.6238763">
        <ele>128.954</ele>
        <time>2014-05-07T18:09:42Z</time>
      </trkpt>
      <trkpt lat="56.3422633" lon="13.6236013">
        <ele>128.954</ele>
        <time>2014-05-07T18:09:48Z</time>
      </trkpt>
      <trkpt lat="56.3422925" lon="13.6233236">
        <ele>128.954</ele>
        <time>2014-05-07T18:09:54Z</time>
      </trkpt>
      <trkpt lat="56.3423153" lon="13.6230827">
        <ele>129.435</ele>
        <time>2014-05-07T18:09:59Z</time>
      </trkpt>
      <trkpt lat="56.3423432" lon="13.6227393">
        <ele>129.915</ele>
        <time>2014-05-07T18:10:06Z</time>
      </trkpt>
      <trkpt lat="56.3423558" lon="13.6223661">
        <ele>128.954</ele>
        <time>2014-05-07T18:10:14Z</time>
      </trkpt>
      <trkpt lat="56.3423703" lon="13.6221182">
        <ele>127.993</ele>
        <time>2014-05-07T18:10:20Z</time>
      </trkpt>
      <trkpt lat="56.3423675" lon="13.6218955">
        <ele>127.512</ele>
        <time>2014-05-07T18:10:25Z</time>
      </trkpt>
      <trkpt lat="56.3423484" lon="13.6216059">
        <ele>125.589</ele>
        <time>2014-05-07T18:10:32Z</time>
      </trkpt>
      <trkpt lat="56.3423142" lon="13.6213365">
        <ele>124.628</ele>
        <time>2014-05-07T18:10:38Z</time>
      </trkpt>
      <trkpt lat="56.342288" lon="13.6209408">
        <ele>125.109</ele>
        <time>2014-05-07T18:10:47Z</time>
      </trkpt>
      <trkpt lat="56.3422749" lon="13.6206911">
        <ele>124.628</ele>
        <time>2014-05-07T18:10:53Z</time>
      </trkpt>
      <trkpt lat="56.342249" lon="13.6203643">
        <ele>124.147</ele>
        <time>2014-05-07T18:11:00Z</time>
      </trkpt>
      <trkpt lat="56.3422124" lon="13.6200431">
        <ele>122.705</ele>
        <time>2014-05-07T18:11:07Z</time>
      </trkpt>
      <trkpt lat="56.3422081" lon="13.6197835">
        <ele>121.264</ele>
        <time>2014-05-07T18:11:13Z</time>
      </trkpt>
      <trkpt lat="56.3422032" lon="13.6195446">
        <ele>119.821</ele>
        <time>2014-05-07T18:11:19Z</time>
      </trkpt>
      <trkpt lat="56.342178" lon="13.6193275">
        <ele>119.821</ele>
        <time>2014-05-07T18:11:24Z</time>
      </trkpt>
      <trkpt lat="56.3421697" lon="13.6191099">
        <ele>119.821</ele>
        <time>2014-05-07T18:11:29Z</time>
      </trkpt>
      <trkpt lat="56.3421516" lon="13.6188429">
        <ele>118.86</ele>
        <time>2014-05-07T18:11:35Z</time>
      </trkpt>
      <trkpt lat="56.3421626" lon="13.6186688">
        <ele>118.379</ele>
        <time>2014-05-07T18:11:39Z</time>
      </trkpt>
      <trkpt lat="56.3421937" lon="13.6184652">
        <ele>117.418</ele>
        <time>2014-05-07T18:11:44Z</time>
      </trkpt>
      <trkpt lat="56.3422247" lon="13.6181084">
        <ele>117.899</ele>
        <time>2014-05-07T18:11:51Z</time>
      </trkpt>
      <trkpt lat="56.3422431" lon="13.6178669">
        <ele>118.379</ele>
        <time>2014-05-07T18:11:56Z</time>
      </trkpt>
      <trkpt lat="56.342278" lon="13.6175421">
        <ele>117.899</ele>
        <time>2014-05-07T18:12:03Z</time>
      </trkpt>
      <trkpt lat="56.3423183" lon="13.6173095">
        <ele>117.418</ele>
        <time>2014-05-07T18:12:08Z</time>
      </trkpt>
      <trkpt lat="56.3423608" lon="13.6170425">
        <ele>117.899</ele>
        <time>2014-05-07T18:12:14Z</time>
      </trkpt>
      <trkpt lat="56.3424203" lon="13.6168127">
        <ele>118.379</ele>
        <time>2014-05-07T18:12:20Z</time>
      </trkpt>
      <trkpt lat="56.3424659" lon="13.616674">
        <ele>119.341</ele>
        <time>2014-05-07T18:12:24Z</time>
      </trkpt>
      <trkpt lat="56.342519" lon="13.616462">
        <ele>119.341</ele>
        <time>2014-05-07T18:12:29Z</time>
      </trkpt>
      <trkpt lat="56.342594" lon="13.6162439">
        <ele>116.938</ele>
        <time>2014-05-07T18:12:35Z</time>
      </trkpt>
      <trkpt lat="56.3426674" lon="13.6160715">
        <ele>115.496</ele>
        <time>2014-05-07T18:12:40Z</time>
      </trkpt>
      <trkpt lat="56.3426821" lon="13.6160321">
        <ele>115.496</ele>
        <time>2014-05-07T18:12:41Z</time>
      </trkpt>
      <trkpt lat="56.3427841" lon="13.6158511">
        <ele>114.534</ele>
        <time>2014-05-07T18:12:47Z</time>
      </trkpt>
      <trkpt lat="56.3428779" lon="13.6158735">
        <ele>113.573</ele>
        <time>2014-05-07T18:12:52Z</time>
      </trkpt>
      <trkpt lat="56.3430025" lon="13.6159368">
        <ele>112.612</ele>
        <time>2014-05-07T18:12:57Z</time>
      </trkpt>
      <trkpt lat="56.3431285" lon="13.6159922">
        <ele>112.612</ele>
        <time>2014-05-07T18:13:02Z</time>
      </trkpt>
      <trkpt lat="56.3432099" lon="13.6160886">
        <ele>112.131</ele>
        <time>2014-05-07T18:13:06Z</time>
      </trkpt>
      <trkpt lat="56.3432952" lon="13.6162122">
        <ele>111.17</ele>
        <time>2014-05-07T18:13:12Z</time>
      </trkpt>
      <trkpt lat="56.3433473" lon="13.6162875">
        <ele>110.689</ele>
        <time>2014-05-07T18:13:16Z</time>
      </trkpt>
      <trkpt lat="56.3433736" lon="13.6162865">
        <ele>111.17</ele>
        <time>2014-05-07T18:13:22Z</time>
      </trkpt>
      <trkpt lat="56.3434026" lon="13.6163206">
        <ele>110.689</ele>
        <time>2014-05-07T18:13:26Z</time>
      </trkpt>
      <trkpt lat="56.343442" lon="13.6163916">
        <ele>109.247</ele>
        <time>2014-05-07T18:13:31Z</time>
      </trkpt>
      <trkpt lat="56.3434496" lon="13.6164071">
        <ele>109.247</ele>
        <time>2014-05-07T18:13:32Z</time>
      </trkpt>
      <trkpt lat="56.3434711" lon="13.6164735">
        <ele>108.766</ele>
        <time>2014-05-07T18:13:36Z</time>
      </trkpt>
      <trkpt lat="56.3435154" lon="13.6166231">
        <ele>107.805</ele>
        <time>2014-05-07T18:13:42Z</time>
      </trkpt>
      <trkpt lat="56.343555" lon="13.6167967">
        <ele>107.805</ele>
        <time>2014-05-07T18:13:47Z</time>
      </trkpt>
      <trkpt lat="56.3436037" lon="13.6169991">
        <ele>107.805</ele>
        <time>2014-05-07T18:13:53Z</time>
      </trkpt>
      <trkpt lat="56.3436731" lon="13.6172126">
        <ele>107.324</ele>
        <time>2014-05-07T18:13:59Z</time>
      </trkpt>
      <trkpt lat="56.3436942" lon="13.6173876">
        <ele>107.324</ele>
        <time>2014-05-07T18:14:03Z</time>
      </trkpt>
      <trkpt lat="56.3436759" lon="13.6175816">
        <ele>107.324</ele>
        <time>2014-05-07T18:14:09Z</time>
      </trkpt>
      <trkpt lat="56.3436737" lon="13.6176499">
        <ele>107.805</ele>
        <time>2014-05-07T18:14:11Z</time>
      </trkpt>
      <trkpt lat="56.3437269" lon="13.6177597">
        <ele>106.844</ele>
        <time>2014-05-07T18:14:17Z</time>
      </trkpt>
      <trkpt lat="56.343746" lon="13.6177726">
        <ele>106.844</ele>
        <time>2014-05-07T18:14:18Z</time>
      </trkpt>
      <trkpt lat="56.3438088" lon="13.6177746">
        <ele>105.882</ele>
        <time>2014-05-07T18:14:22Z</time>
      </trkpt>
      <trkpt lat="56.3439232" lon="13.6179186">
        <ele>104.44</ele>
        <time>2014-05-07T18:14:29Z</time>
      </trkpt>
      <trkpt lat="56.3439631" lon="13.6179801">
        <ele>104.44</ele>
        <time>2014-05-07T18:14:32Z</time>
      </trkpt>
      <trkpt lat="56.3439864" lon="13.6179978">
        <ele>103.96</ele>
        <time>2014-05-07T18:14:38Z</time>
      </trkpt>
      <trkpt lat="56.3439974" lon="13.6180016">
        <ele>104.44</ele>
        <time>2014-05-07T18:14:39Z</time>
      </trkpt>
      <trkpt lat="56.3440657" lon="13.6179377">
        <ele>104.44</ele>
        <time>2014-05-07T18:14:46Z</time>
      </trkpt>
      <trkpt lat="56.3440849" lon="13.6178799">
        <ele>103.96</ele>
        <time>2014-05-07T18:14:50Z</time>
      </trkpt>
      <trkpt lat="56.3441077" lon="13.6178073">
        <ele>103.479</ele>
        <time>2014-05-07T18:14:57Z</time>
      </trkpt>
      <trkpt lat="56.3441227" lon="13.617783">
        <ele>103.479</ele>
        <time>2014-05-07T18:15:04Z</time>
      </trkpt>
      <trkpt lat="56.344152" lon="13.6177593">
        <ele>103.479</ele>
        <time>2014-05-07T18:15:09Z</time>
      </trkpt>
      <trkpt lat="56.3441538" lon="13.6177535">
        <ele>103.479</ele>
        <time>2014-05-07T18:15:10Z</time>
      </trkpt>
      <trkpt lat="56.3441657" lon="13.6177196">
        <ele>103.479</ele>
        <time>2014-05-07T18:15:13Z</time>
      </trkpt>
      <trkpt lat="56.3441979" lon="13.6176764">
        <ele>102.998</ele>
        <time>2014-05-07T18:15:18Z</time>
      </trkpt>
      <trkpt lat="56.3442002" lon="13.6176694">
        <ele>103.479</ele>
        <time>2014-05-07T18:15:19Z</time>
      </trkpt>
      <trkpt lat="56.3442186" lon="13.6176581">
        <ele>102.998</ele>
        <time>2014-05-07T18:15:23Z</time>
      </trkpt>
      <trkpt lat="56.3442339" lon="13.6176472">
        <ele>102.518</ele>
        <time>2014-05-07T18:15:28Z</time>
      </trkpt>
      <trkpt lat="56.3442676" lon="13.6176115">
        <ele>101.556</ele>
        <time>2014-05-07T18:15:32Z</time>
      </trkpt>
      <trkpt lat="56.3442827" lon="13.6175902">
        <ele>101.556</ele>
        <time>2014-05-07T18:15:34Z</time>
      </trkpt>
      <trkpt lat="56.3443268" lon="13.6175494">
        <ele>101.076</ele>
        <time>2014-05-07T18:15:41Z</time>
      </trkpt>
      <trkpt lat="56.3443637" lon="13.6175166">
        <ele>100.595</ele>
        <time>2014-05-07T18:15:47Z</time>
      </trkpt>
      <trkpt lat="56.3444027" lon="13.617472">
        <ele>101.076</ele>
        <time>2014-05-07T18:15:52Z</time>
      </trkpt>
      <trkpt lat="56.3444108" lon="13.6174648">
        <ele>101.076</ele>
        <time>2014-05-07T18:15:53Z</time>
      </trkpt>
      <trkpt lat="56.3444671" lon="13.6174401">
        <ele>101.076</ele>
        <time>2014-05-07T18:15:58Z</time>
      </trkpt>
      <trkpt lat="56.3444957" lon="13.6174497">
        <ele>101.076</ele>
        <time>2014-05-07T18:16:01Z</time>
      </trkpt>
      <trkpt lat="56.3445406" lon="13.6174302">
        <ele>102.037</ele>
        <time>2014-05-07T18:16:06Z</time>
      </trkpt>
      <trkpt lat="56.3445942" lon="13.6174728">
        <ele>102.037</ele>
        <time>2014-05-07T18:16:11Z</time>
      </trkpt>
      <trkpt lat="56.3446182" lon="13.6175042">
        <ele>102.037</ele>
        <time>2014-05-07T18:16:14Z</time>
      </trkpt>
      <trkpt lat="56.3446411" lon="13.6175158">
        <ele>101.556</ele>
        <time>2014-05-07T18:16:16Z</time>
      </trkpt>
      <trkpt lat="56.3446752" lon="13.6175587">
        <ele>101.076</ele>
        <time>2014-05-07T18:16:21Z</time>
      </trkpt>
      <trkpt lat="56.3447287" lon="13.6176051">
        <ele>101.076</ele>
        <time>2014-05-07T18:16:28Z</time>
      </trkpt>
      <trkpt lat="56.3447578" lon="13.6176493">
        <ele>101.076</ele>
        <time>2014-05-07T18:16:32Z</time>
      </trkpt>
      <trkpt lat="56.3447755" lon="13.617688">
        <ele>101.076</ele>
        <time>2014-05-07T18:16:36Z</time>
      </trkpt>
      <trkpt lat="56.3448032" lon="13.6177328">
        <ele>100.595</ele>
        <time>2014-05-07T18:16:41Z</time>
      </trkpt>
      <trkpt lat="56.3448137" lon="13.6177296">
        <ele>100.595</ele>
        <time>2014-05-07T18:16:43Z</time>
      </trkpt>
      <trkpt lat="56.3448287" lon="13.6177401">
        <ele>100.595</ele>
        <time>2014-05-07T18:16:47Z</time>
      </trkpt>
      <trkpt lat="56.3448509" lon="13.6177932">
        <ele>100.595</ele>
        <time>2014-05-07T18:16:53Z</time>
      </trkpt>
      <trkpt lat="56.344852" lon="13.6178085">
        <ele>100.595</ele>
        <time>2014-05-07T18:16:55Z</time>
      </trkpt>
      <trkpt lat="56.3448805" lon="13.6178829">
        <ele>100.115</ele>
        <time>2014-05-07T18:17:00Z</time>
      </trkpt>
      <trkpt lat="56.3448829" lon="13.6178985">
        <ele>100.595</ele>
        <time>2014-05-07T18:17:01Z</time>
      </trkpt>
      <trkpt lat="56.3449116" lon="13.617984">
        <ele>100.115</ele>
        <time>2014-05-07T18:17:08Z</time>
      </trkpt>
      <trkpt lat="56.344923" lon="13.6180564">
        <ele>100.595</ele>
        <time>2014-05-07T18:17:12Z</time>
      </trkpt>
      <trkpt lat="56.3449385" lon="13.618168">
        <ele>101.076</ele>
        <time>2014-05-07T18:17:19Z</time>
      </trkpt>
      <trkpt lat="56.3449648" lon="13.6182201">
        <ele>100.595</ele>
        <time>2014-05-07T18:17:23Z</time>
      </trkpt>
      <trkpt lat="56.3449814" lon="13.6182357">
        <ele>100.595</ele>
        <time>2014-05-07T18:17:25Z</time>
      </trkpt>
      <trkpt lat="56.3450059" lon="13.6183278">
        <ele>100.595</ele>
        <time>2014-05-07T18:17:32Z</time>
      </trkpt>
      <trkpt lat="56.345034" lon="13.6184086">
        <ele>100.595</ele>
        <time>2014-05-07T18:17:38Z</time>
      </trkpt>
      <trkpt lat="56.3450416" lon="13.618421">
        <ele>100.595</ele>
        <time>2014-05-07T18:17:39Z</time>
      </trkpt>
      <trkpt lat="56.345065" lon="13.6185164">
        <ele>101.076</ele>
        <time>2014-05-07T18:17:45Z</time>
      </trkpt>
      <trkpt lat="56.3450689" lon="13.6185995">
        <ele>101.076</ele>
        <time>2014-05-07T18:17:52Z</time>
      </trkpt>
      <trkpt lat="56.3450481" lon="13.6185714">
        <ele>101.556</ele>
        <time>2014-05-07T18:18:05Z</time>
      </trkpt>
      <trkpt lat="56.3450224" lon="13.6184988">
        <ele>101.556</ele>
        <time>2014-05-07T18:18:09Z</time>
      </trkpt>
      <trkpt lat="56.345008" lon="13.6183725">
        <ele>102.037</ele>
        <time>2014-05-07T18:18:16Z</time>
      </trkpt>
      <trkpt lat="56.3449663" lon="13.6182487">
        <ele>102.037</ele>
        <time>2014-05-07T18:18:24Z</time>
      </trkpt>
      <trkpt lat="56.3449329" lon="13.6181804">
        <ele>102.037</ele>
        <time>2014-05-07T18:18:28Z</time>
      </trkpt>
      <trkpt lat="56.3448858" lon="13.618033">
        <ele>102.037</ele>
        <time>2014-05-07T18:18:36Z</time>
      </trkpt>
      <trkpt lat="56.3448333" lon="13.6179159">
        <ele>102.037</ele>
        <time>2014-05-07T18:18:43Z</time>
      </trkpt>
      <trkpt lat="56.3447965" lon="13.6177976">
        <ele>102.518</ele>
        <time>2014-05-07T18:18:49Z</time>
      </trkpt>
      <trkpt lat="56.3447824" lon="13.6177694">
        <ele>102.518</ele>
        <time>2014-05-07T18:18:51Z</time>
      </trkpt>
      <trkpt lat="56.3447511" lon="13.6176644">
        <ele>102.518</ele>
        <time>2014-05-07T18:18:57Z</time>
      </trkpt>
      <trkpt lat="56.3447081" lon="13.6176082">
        <ele>102.037</ele>
        <time>2014-05-07T18:19:02Z</time>
      </trkpt>
      <trkpt lat="56.3446842" lon="13.6175715">
        <ele>102.518</ele>
        <time>2014-05-07T18:19:05Z</time>
      </trkpt>
      <trkpt lat="56.344649" lon="13.6175383">
        <ele>102.518</ele>
        <time>2014-05-07T18:19:09Z</time>
      </trkpt>
      <trkpt lat="56.3446142" lon="13.6175053">
        <ele>102.037</ele>
        <time>2014-05-07T18:19:13Z</time>
      </trkpt>
      <trkpt lat="56.3445801" lon="13.617483">
        <ele>102.037</ele>
        <time>2014-05-07T18:19:17Z</time>
      </trkpt>
      <trkpt lat="56.3445267" lon="13.617424">
        <ele>102.037</ele>
        <time>2014-05-07T18:19:23Z</time>
      </trkpt>
      <trkpt lat="56.3445172" lon="13.6174223">
        <ele>102.518</ele>
        <time>2014-05-07T18:19:24Z</time>
      </trkpt>
      <trkpt lat="56.3444519" lon="13.6174468">
        <ele>102.998</ele>
        <time>2014-05-07T18:19:30Z</time>
      </trkpt>
      <trkpt lat="56.3443729" lon="13.6174238">
        <ele>103.479</ele>
        <time>2014-05-07T18:19:37Z</time>
      </trkpt>
      <trkpt lat="56.3443314" lon="13.6173816">
        <ele>103.479</ele>
        <time>2014-05-07T18:19:42Z</time>
      </trkpt>
      <trkpt lat="56.3443178" lon="13.6173696">
        <ele>103.479</ele>
        <time>2014-05-07T18:19:43Z</time>
      </trkpt>
      <trkpt lat="56.344293" lon="13.6173239">
        <ele>103.479</ele>
        <time>2014-05-07T18:19:47Z</time>
      </trkpt>
      <trkpt lat="56.3442786" lon="13.6173053">
        <ele>103.479</ele>
        <time>2014-05-07T18:19:49Z</time>
      </trkpt>
      <trkpt lat="56.3442293" lon="13.6172435">
        <ele>102.998</ele>
        <time>2014-05-07T18:19:55Z</time>
      </trkpt>
      <trkpt lat="56.344217" lon="13.6172308">
        <ele>102.518</ele>
        <time>2014-05-07T18:19:57Z</time>
      </trkpt>
      <trkpt lat="56.3441714" lon="13.6172179">
        <ele>102.518</ele>
        <time>2014-05-07T18:20:04Z</time>
      </trkpt>
      <trkpt lat="56.3441547" lon="13.6172394">
        <ele>102.998</ele>
        <time>2014-05-07T18:20:11Z</time>
      </trkpt>
      <trkpt lat="56.3440842" lon="13.6172836">
        <ele>102.998</ele>
        <time>2014-05-07T18:20:18Z</time>
      </trkpt>
      <trkpt lat="56.3440121" lon="13.6173106">
        <ele>102.518</ele>
        <time>2014-05-07T18:20:25Z</time>
      </trkpt>
      <trkpt lat="56.344" lon="13.6173156">
        <ele>102.518</ele>
        <time>2014-05-07T18:20:26Z</time>
      </trkpt>
      <trkpt lat="56.3439549" lon="13.6173328">
        <ele>102.998</ele>
        <time>2014-05-07T18:20:30Z</time>
      </trkpt>
      <trkpt lat="56.3438729" lon="13.6173043">
        <ele>102.518</ele>
        <time>2014-05-07T18:20:37Z</time>
      </trkpt>
      <trkpt lat="56.3438222" lon="13.6172721">
        <ele>102.518</ele>
        <time>2014-05-07T18:20:40Z</time>
      </trkpt>
      <trkpt lat="56.3437329" lon="13.6172366">
        <ele>102.518</ele>
        <time>2014-05-07T18:20:45Z</time>
      </trkpt>
      <trkpt lat="56.3436558" lon="13.6171023">
        <ele>102.037</ele>
        <time>2014-05-07T18:20:50Z</time>
      </trkpt>
      <trkpt lat="56.3436269" lon="13.6170494">
        <ele>102.037</ele>
        <time>2014-05-07T18:20:52Z</time>
      </trkpt>
      <trkpt lat="56.3435829" lon="13.6168004">
        <ele>102.037</ele>
        <time>2014-05-07T18:20:59Z</time>
      </trkpt>
      <trkpt lat="56.3435082" lon="13.6165552">
        <ele>102.518</ele>
        <time>2014-05-07T18:21:06Z</time>
      </trkpt>
      <trkpt lat="56.3434773" lon="13.6165064">
        <ele>102.998</ele>
        <time>2014-05-07T18:21:08Z</time>
      </trkpt>
      <trkpt lat="56.3433897" lon="13.6162974">
        <ele>103.479</ele>
        <time>2014-05-07T18:21:15Z</time>
      </trkpt>
      <trkpt lat="56.343352" lon="13.616219">
        <ele>103.479</ele>
        <time>2014-05-07T18:21:18Z</time>
      </trkpt>
      <trkpt lat="56.3432679" lon="13.6160304">
        <ele>103.96</ele>
        <time>2014-05-07T18:21:25Z</time>
      </trkpt>
      <trkpt lat="56.3432032" lon="13.6159558">
        <ele>105.402</ele>
        <time>2014-05-07T18:21:29Z</time>
      </trkpt>
      <trkpt lat="56.3431616" lon="13.6159003">
        <ele>106.363</ele>
        <time>2014-05-07T18:21:33Z</time>
      </trkpt>
      <trkpt lat="56.3430865" lon="13.6158213">
        <ele>106.844</ele>
        <time>2014-05-07T18:21:40Z</time>
      </trkpt>
      <trkpt lat="56.3429487" lon="13.6157616">
        <ele>107.324</ele>
        <time>2014-05-07T18:21:46Z</time>
      </trkpt>
      <trkpt lat="56.3429137" lon="13.6156115">
        <ele>106.844</ele>
        <time>2014-05-07T18:21:50Z</time>
      </trkpt>
      <trkpt lat="56.3429327" lon="13.6152834">
        <ele>106.844</ele>
        <time>2014-05-07T18:21:58Z</time>
      </trkpt>
      <trkpt lat="56.343001" lon="13.6150615">
        <ele>106.844</ele>
        <time>2014-05-07T18:22:04Z</time>
      </trkpt>
      <trkpt lat="56.343016" lon="13.61499">
        <ele>106.363</ele>
        <time>2014-05-07T18:22:06Z</time>
      </trkpt>
      <trkpt lat="56.3430807" lon="13.6149467">
        <ele>106.363</ele>
        <time>2014-05-07T18:22:10Z</time>
      </trkpt>
      <trkpt lat="56.3431321" lon="13.6148479">
        <ele>105.882</ele>
        <time>2014-05-07T18:22:15Z</time>
      </trkpt>
      <trkpt lat="56.343169" lon="13.6148003">
        <ele>105.402</ele>
        <time>2014-05-07T18:22:20Z</time>
      </trkpt>
      <trkpt lat="56.3431767" lon="13.6147807">
        <ele>105.402</ele>
        <time>2014-05-07T18:22:26Z</time>
      </trkpt>
      <trkpt lat="56.3431524" lon="13.6147815">
        <ele>104.44</ele>
        <time>2014-05-07T18:22:52Z</time>
      </trkpt>
      <trkpt lat="56.3431456" lon="13.6147908">
        <ele>104.44</ele>
        <time>2014-05-07T18:22:53Z</time>
      </trkpt>
      <trkpt lat="56.3431225" lon="13.6148555">
        <ele>104.44</ele>
        <time>2014-05-07T18:22:57Z</time>
      </trkpt>
      <trkpt lat="56.3430906" lon="13.6148633">
        <ele>103.479</ele>
        <time>2014-05-07T18:23:00Z</time>
      </trkpt>
      <trkpt lat="56.3430235" lon="13.6149172">
        <ele>102.998</ele>
        <time>2014-05-07T18:23:05Z</time>
      </trkpt>
      <trkpt lat="56.3429577" lon="13.6151096">
        <ele>103.479</ele>
        <time>2014-05-07T18:23:10Z</time>
      </trkpt>
      <trkpt lat="56.3429125" lon="13.6152809">
        <ele>102.518</ele>
        <time>2014-05-07T18:23:15Z</time>
      </trkpt>
      <trkpt lat="56.3428881" lon="13.6156142">
        <ele>103.96</ele>
        <time>2014-05-07T18:23:22Z</time>
      </trkpt>
      <trkpt lat="56.3428362" lon="13.6157441">
        <ele>104.921</ele>
        <time>2014-05-07T18:23:26Z</time>
      </trkpt>
      <trkpt lat="56.3427562" lon="13.6159114">
        <ele>105.402</ele>
        <time>2014-05-07T18:23:31Z</time>
      </trkpt>
      <trkpt lat="56.3426924" lon="13.6160933">
        <ele>107.324</ele>
        <time>2014-05-07T18:23:36Z</time>
      </trkpt>
      <trkpt lat="56.3426297" lon="13.6163165">
        <ele>108.766</ele>
        <time>2014-05-07T18:23:41Z</time>
      </trkpt>
      <trkpt lat="56.342563" lon="13.6165337">
        <ele>109.728</ele>
        <time>2014-05-07T18:23:46Z</time>
      </trkpt>
      <trkpt lat="56.342551" lon="13.6165803">
        <ele>110.208</ele>
        <time>2014-05-07T18:23:47Z</time>
      </trkpt>
      <trkpt lat="56.34246" lon="13.6167797">
        <ele>110.208</ele>
        <time>2014-05-07T18:23:52Z</time>
      </trkpt>
      <trkpt lat="56.3423877" lon="13.6170474">
        <ele>110.208</ele>
        <time>2014-05-07T18:23:58Z</time>
      </trkpt>
      <trkpt lat="56.3423353" lon="13.617287">
        <ele>111.17</ele>
        <time>2014-05-07T18:24:03Z</time>
      </trkpt>
      <trkpt lat="56.3423115" lon="13.6175312">
        <ele>111.65</ele>
        <time>2014-05-07T18:24:08Z</time>
      </trkpt>
      <trkpt lat="56.3423045" lon="13.6177901">
        <ele>112.131</ele>
        <time>2014-05-07T18:24:13Z</time>
      </trkpt>
      <trkpt lat="56.3422774" lon="13.6180384">
        <ele>113.092</ele>
        <time>2014-05-07T18:24:18Z</time>
      </trkpt>
      <trkpt lat="56.3422581" lon="13.6182198">
        <ele>113.573</ele>
        <time>2014-05-07T18:24:22Z</time>
      </trkpt>
      <trkpt lat="56.342206" lon="13.6184422">
        <ele>114.054</ele>
        <time>2014-05-07T18:24:27Z</time>
      </trkpt>
      <trkpt lat="56.3421857" lon="13.6185303">
        <ele>114.534</ele>
        <time>2014-05-07T18:24:29Z</time>
      </trkpt>
      <trkpt lat="56.3421728" lon="13.618815">
        <ele>115.496</ele>
        <time>2014-05-07T18:24:35Z</time>
      </trkpt>
      <trkpt lat="56.3422036" lon="13.6191612">
        <ele>115.976</ele>
        <time>2014-05-07T18:24:42Z</time>
      </trkpt>
      <trkpt lat="56.3422443" lon="13.6195292">
        <ele>116.457</ele>
        <time>2014-05-07T18:24:49Z</time>
      </trkpt>
      <trkpt lat="56.3422801" lon="13.6198805">
        <ele>116.457</ele>
        <time>2014-05-07T18:24:56Z</time>
      </trkpt>
      <trkpt lat="56.3422903" lon="13.6201273">
        <ele>115.976</ele>
        <time>2014-05-07T18:25:01Z</time>
      </trkpt>
      <trkpt lat="56.3423125" lon="13.6203711">
        <ele>115.976</ele>
        <time>2014-05-07T18:25:06Z</time>
      </trkpt>
      <trkpt lat="56.3423309" lon="13.6206005">
        <ele>115.976</ele>
        <time>2014-05-07T18:25:11Z</time>
      </trkpt>
      <trkpt lat="56.3423454" lon="13.6208438">
        <ele>115.976</ele>
        <time>2014-05-07T18:25:16Z</time>
      </trkpt>
      <trkpt lat="56.3423532" lon="13.6208926">
        <ele>116.457</ele>
        <time>2014-05-07T18:25:24Z</time>
      </trkpt>
      <trkpt lat="56.3423584" lon="13.6209033">
        <ele>116.938</ele>
        <time>2014-05-07T18:25:27Z</time>
      </trkpt>
      <trkpt lat="56.3423506" lon="13.6210661">
        <ele>117.418</ele>
        <time>2014-05-07T18:25:31Z</time>
      </trkpt>
      <trkpt lat="56.342352" lon="13.6211635">
        <ele>116.938</ele>
        <time>2014-05-07T18:25:33Z</time>
      </trkpt>
      <trkpt lat="56.342355" lon="13.6213511">
        <ele>115.976</ele>
        <time>2014-05-07T18:25:37Z</time>
      </trkpt>
      <trkpt lat="56.3424004" lon="13.6216349">
        <ele>115.015</ele>
        <time>2014-05-07T18:25:43Z</time>
      </trkpt>
      <trkpt lat="56.3424059" lon="13.6216877">
        <ele>115.015</ele>
        <time>2014-05-07T18:25:44Z</time>
      </trkpt>
      <trkpt lat="56.3424102" lon="13.6219272">
        <ele>114.054</ele>
        <time>2014-05-07T18:25:49Z</time>
      </trkpt>
      <trkpt lat="56.342409" lon="13.6221843">
        <ele>114.534</ele>
        <time>2014-05-07T18:25:54Z</time>
      </trkpt>
      <trkpt lat="56.3424122" lon="13.62257">
        <ele>115.015</ele>
        <time>2014-05-07T18:26:01Z</time>
      </trkpt>
      <trkpt lat="56.3423941" lon="13.6228163">
        <ele>114.054</ele>
        <time>2014-05-07T18:26:06Z</time>
      </trkpt>
      <trkpt lat="56.3423791" lon="13.6230677">
        <ele>113.573</ele>
        <time>2014-05-07T18:26:11Z</time>
      </trkpt>
      <trkpt lat="56.342376" lon="13.6232809">
        <ele>114.054</ele>
        <time>2014-05-07T18:26:15Z</time>
      </trkpt>
      <trkpt lat="56.3423305" lon="13.6235712">
        <ele>113.573</ele>
        <time>2014-05-07T18:26:21Z</time>
      </trkpt>
      <trkpt lat="56.3422734" lon="13.6238526">
        <ele>113.092</ele>
        <time>2014-05-07T18:26:27Z</time>
      </trkpt>
      <trkpt lat="56.3422234" lon="13.624152">
        <ele>113.573</ele>
        <time>2014-05-07T18:26:33Z</time>
      </trkpt>
      <trkpt lat="56.3421882" lon="13.6244063">
        <ele>114.534</ele>
        <time>2014-05-07T18:26:38Z</time>
      </trkpt>
      <trkpt lat="56.3421662" lon="13.6245025">
        <ele>115.015</ele>
        <time>2014-05-07T18:26:40Z</time>
      </trkpt>
      <trkpt lat="56.3421545" lon="13.6248833">
        <ele>115.496</ele>
        <time>2014-05-07T18:26:48Z</time>
      </trkpt>
      <trkpt lat="56.3421444" lon="13.6250661">
        <ele>115.976</ele>
        <time>2014-05-07T18:26:52Z</time>
      </trkpt>
      <trkpt lat="56.3421532" lon="13.6253556">
        <ele>117.899</ele>
        <time>2014-05-07T18:26:58Z</time>
      </trkpt>
      <trkpt lat="56.3421687" lon="13.6256529">
        <ele>118.379</ele>
        <time>2014-05-07T18:27:04Z</time>
      </trkpt>
      <trkpt lat="56.3421843" lon="13.6258744">
        <ele>119.821</ele>
        <time>2014-05-07T18:27:09Z</time>
      </trkpt>
      <trkpt lat="56.3421765" lon="13.6261514">
        <ele>120.302</ele>
        <time>2014-05-07T18:27:15Z</time>
      </trkpt>
      <trkpt lat="56.3421509" lon="13.6264281">
        <ele>121.264</ele>
        <time>2014-05-07T18:27:21Z</time>
      </trkpt>
      <trkpt lat="56.3421434" lon="13.626671">
        <ele>121.744</ele>
        <time>2014-05-07T18:27:26Z</time>
      </trkpt>
      <trkpt lat="56.3421376" lon="13.6268311">
        <ele>123.186</ele>
        <time>2014-05-07T18:27:29Z</time>
      </trkpt>
      <trkpt lat="56.3420994" lon="13.6271243">
        <ele>123.667</ele>
        <time>2014-05-07T18:27:35Z</time>
      </trkpt>
      <trkpt lat="56.342075" lon="13.6273645">
        <ele>124.147</ele>
        <time>2014-05-07T18:27:40Z</time>
      </trkpt>
      <trkpt lat="56.3420429" lon="13.6276629">
        <ele>125.109</ele>
        <time>2014-05-07T18:27:46Z</time>
      </trkpt>
      <trkpt lat="56.3420029" lon="13.6280167">
        <ele>124.628</ele>
        <time>2014-05-07T18:27:53Z</time>
      </trkpt>
      <trkpt lat="56.3419761" lon="13.6283711">
        <ele>124.147</ele>
        <time>2014-05-07T18:28:00Z</time>
      </trkpt>
      <trkpt lat="56.3419465" lon="13.6286675">
        <ele>123.186</ele>
        <time>2014-05-07T18:28:06Z</time>
      </trkpt>
      <trkpt lat="56.341907" lon="13.6290523">
        <ele>121.744</ele>
        <time>2014-05-07T18:28:14Z</time>
      </trkpt>
      <trkpt lat="56.341885" lon="13.629344">
        <ele>120.302</ele>
        <time>2014-05-07T18:28:20Z</time>
      </trkpt>
      <trkpt lat="56.3418863" lon="13.6296929">
        <ele>118.86</ele>
        <time>2014-05-07T18:28:27Z</time>
      </trkpt>
      <trkpt lat="56.3419103" lon="13.6299733">
        <ele>117.899</ele>
        <time>2014-05-07T18:28:33Z</time>
      </trkpt>
      <trkpt lat="56.3419662" lon="13.6302986">
        <ele>117.418</ele>
        <time>2014-05-07T18:28:40Z</time>
      </trkpt>
      <trkpt lat="56.3420061" lon="13.6305199">
        <ele>116.938</ele>
        <time>2014-05-07T18:28:45Z</time>
      </trkpt>
      <trkpt lat="56.342036" lon="13.6307993">
        <ele>115.976</ele>
        <time>2014-05-07T18:28:51Z</time>
      </trkpt>
      <trkpt lat="56.3420734" lon="13.631068">
        <ele>115.496</ele>
        <time>2014-05-07T18:28:57Z</time>
      </trkpt>
      <trkpt lat="56.3420984" lon="13.6312906">
        <ele>114.534</ele>
        <time>2014-05-07T18:29:02Z</time>
      </trkpt>
      <trkpt lat="56.34215" lon="13.6314793">
        <ele>114.054</ele>
        <time>2014-05-07T18:29:07Z</time>
      </trkpt>
      <trkpt lat="56.3422765" lon="13.6317454">
        <ele>113.573</ele>
        <time>2014-05-07T18:29:14Z</time>
      </trkpt>
      <trkpt lat="56.3424102" lon="13.6319432">
        <ele>114.054</ele>
        <time>2014-05-07T18:29:20Z</time>
      </trkpt>
      <trkpt lat="56.342512" lon="13.63208">
        <ele>113.573</ele>
        <time>2014-05-07T18:29:25Z</time>
      </trkpt>
      <trkpt lat="56.342657" lon="13.6322658">
        <ele>114.054</ele>
        <time>2014-05-07T18:29:32Z</time>
      </trkpt>
      <trkpt lat="56.3427707" lon="13.6324217">
        <ele>114.534</ele>
        <time>2014-05-07T18:29:38Z</time>
      </trkpt>
      <trkpt lat="56.3428547" lon="13.6326224">
        <ele>114.534</ele>
        <time>2014-05-07T18:29:44Z</time>
      </trkpt>
      <trkpt lat="56.3429157" lon="13.6329425">
        <ele>114.534</ele>
        <time>2014-05-07T18:29:51Z</time>
      </trkpt>
      <trkpt lat="56.342929" lon="13.6329843">
        <ele>114.534</ele>
        <time>2014-05-07T18:29:53Z</time>
      </trkpt>
      <trkpt lat="56.3429064" lon="13.6328185">
        <ele>113.092</ele>
        <time>2014-05-07T18:29:58Z</time>
      </trkpt>
      <trkpt lat="56.3429706" lon="13.6327271">
        <ele>112.131</ele>
        <time>2014-05-07T18:30:02Z</time>
      </trkpt>
      <trkpt lat="56.3430359" lon="13.6326966">
        <ele>111.65</ele>
        <time>2014-05-07T18:30:05Z</time>
      </trkpt>
      <trkpt lat="56.3431743" lon="13.632724">
        <ele>109.728</ele>
        <time>2014-05-07T18:30:11Z</time>
      </trkpt>
      <trkpt lat="56.3432602" lon="13.6327426">
        <ele>109.728</ele>
        <time>2014-05-07T18:30:15Z</time>
      </trkpt>
      <trkpt lat="56.343401" lon="13.6326841">
        <ele>109.728</ele>
        <time>2014-05-07T18:30:21Z</time>
      </trkpt>
      <trkpt lat="56.3435074" lon="13.6326966">
        <ele>109.247</ele>
        <time>2014-05-07T18:30:25Z</time>
      </trkpt>
      <trkpt lat="56.3436201" lon="13.6327737">
        <ele>108.766</ele>
        <time>2014-05-07T18:30:31Z</time>
      </trkpt>
      <trkpt lat="56.343727" lon="13.6328227">
        <ele>109.728</ele>
        <time>2014-05-07T18:30:36Z</time>
      </trkpt>
      <trkpt lat="56.3438285" lon="13.6329037">
        <ele>109.247</ele>
        <time>2014-05-07T18:30:41Z</time>
      </trkpt>
      <trkpt lat="56.343903" lon="13.6329457">
        <ele>108.286</ele>
        <time>2014-05-07T18:30:44Z</time>
      </trkpt>
      <trkpt lat="56.3440408" lon="13.6329792">
        <ele>107.324</ele>
        <time>2014-05-07T18:30:50Z</time>
      </trkpt>
      <trkpt lat="56.3441311" lon="13.6330416">
        <ele>107.324</ele>
        <time>2014-05-07T18:30:54Z</time>
      </trkpt>
      <trkpt lat="56.3441667" lon="13.6330529">
        <ele>107.324</ele>
        <time>2014-05-07T18:30:56Z</time>
      </trkpt>
      <trkpt lat="56.3442658" lon="13.6330642">
        <ele>106.844</ele>
        <time>2014-05-07T18:31:01Z</time>
      </trkpt>
      <trkpt lat="56.3443354" lon="13.6331041">
        <ele>106.363</ele>
        <time>2014-05-07T18:31:04Z</time>
      </trkpt>
      <trkpt lat="56.3445112" lon="13.6331498">
        <ele>106.844</ele>
        <time>2014-05-07T18:31:11Z</time>
      </trkpt>
      <trkpt lat="56.34458" lon="13.6331834">
        <ele>106.844</ele>
        <time>2014-05-07T18:31:14Z</time>
      </trkpt>
      <trkpt lat="56.3446701" lon="13.6331788">
        <ele>106.363</ele>
        <time>2014-05-07T18:31:18Z</time>
      </trkpt>
      <trkpt lat="56.344776" lon="13.6331903">
        <ele>106.844</ele>
        <time>2014-05-07T18:31:22Z</time>
      </trkpt>
      <trkpt lat="56.3449577" lon="13.6332326">
        <ele>108.286</ele>
        <time>2014-05-07T18:31:29Z</time>
      </trkpt>
      <trkpt lat="56.3449846" lon="13.6332343">
        <ele>108.286</ele>
        <time>2014-05-07T18:31:30Z</time>
      </trkpt>
      <trkpt lat="56.3450897" lon="13.6332596">
        <ele>107.324</ele>
        <time>2014-05-07T18:31:34Z</time>
      </trkpt>
      <trkpt lat="56.3451939" lon="13.6332532">
        <ele>106.844</ele>
        <time>2014-05-07T18:31:38Z</time>
      </trkpt>
      <trkpt lat="56.3453436" lon="13.6332534">
        <ele>106.844</ele>
        <time>2014-05-07T18:31:44Z</time>
      </trkpt>
      <trkpt lat="56.3453688" lon="13.6332518">
        <ele>106.844</ele>
        <time>2014-05-07T18:31:45Z</time>
      </trkpt>
      <trkpt lat="56.3455266" lon="13.6332772">
        <ele>106.844</ele>
        <time>2014-05-07T18:31:51Z</time>
      </trkpt>
      <trkpt lat="56.3455897" lon="13.6332934">
        <ele>107.324</ele>
        <time>2014-05-07T18:31:54Z</time>
      </trkpt>
      <trkpt lat="56.34561" lon="13.6332944">
        <ele>106.844</ele>
        <time>2014-05-07T18:31:55Z</time>
      </trkpt>
      <trkpt lat="56.345789" lon="13.6333052">
        <ele>106.844</ele>
        <time>2014-05-07T18:32:01Z</time>
      </trkpt>
      <trkpt lat="56.3459078" lon="13.6333181">
        <ele>106.844</ele>
        <time>2014-05-07T18:32:05Z</time>
      </trkpt>
      <trkpt lat="56.3460658" lon="13.6333553">
        <ele>107.324</ele>
        <time>2014-05-07T18:32:10Z</time>
      </trkpt>
      <trkpt lat="56.3462075" lon="13.6333823">
        <ele>107.805</ele>
        <time>2014-05-07T18:32:15Z</time>
      </trkpt>
      <trkpt lat="56.3462733" lon="13.633405">
        <ele>107.805</ele>
        <time>2014-05-07T18:32:18Z</time>
      </trkpt>
      <trkpt lat="56.3463149" lon="13.6334392">
        <ele>107.805</ele>
        <time>2014-05-07T18:32:20Z</time>
      </trkpt>
      <trkpt lat="56.3464153" lon="13.6334186">
        <ele>107.324</ele>
        <time>2014-05-07T18:32:24Z</time>
      </trkpt>
      <trkpt lat="56.3465162" lon="13.6334481">
        <ele>107.324</ele>
        <time>2014-05-07T18:32:28Z</time>
      </trkpt>
      <trkpt lat="56.3465877" lon="13.6334985">
        <ele>106.844</ele>
        <time>2014-05-07T18:32:31Z</time>
      </trkpt>
      <trkpt lat="56.3467485" lon="13.6335637">
        <ele>106.844</ele>
        <time>2014-05-07T18:32:38Z</time>
      </trkpt>
      <trkpt lat="56.3468351" lon="13.6335635">
        <ele>105.402</ele>
        <time>2014-05-07T18:32:42Z</time>
      </trkpt>
      <trkpt lat="56.3469558" lon="13.6335997">
        <ele>104.921</ele>
        <time>2014-05-07T18:32:47Z</time>
      </trkpt>
      <trkpt lat="56.3469718" lon="13.6336077">
        <ele>104.921</ele>
        <time>2014-05-07T18:32:48Z</time>
      </trkpt>
      <trkpt lat="56.347071" lon="13.6336751">
        <ele>103.96</ele>
        <time>2014-05-07T18:32:53Z</time>
      </trkpt>
      <trkpt lat="56.3471012" lon="13.6337408">
        <ele>103.96</ele>
        <time>2014-05-07T18:32:55Z</time>
      </trkpt>
      <trkpt lat="56.3471106" lon="13.6338646">
        <ele>104.921</ele>
        <time>2014-05-07T18:33:00Z</time>
      </trkpt>
      <trkpt lat="56.3471184" lon="13.6338724">
        <ele>104.44</ele>
        <time>2014-05-07T18:33:01Z</time>
      </trkpt>
      <trkpt lat="56.3471525" lon="13.6339153">
        <ele>105.882</ele>
        <time>2014-05-07T18:33:07Z</time>
      </trkpt>
      <trkpt lat="56.3472297" lon="13.6340576">
        <ele>106.363</ele>
        <time>2014-05-07T18:33:12Z</time>
      </trkpt>
      <trkpt lat="56.3473012" lon="13.6341983">
        <ele>106.363</ele>
        <time>2014-05-07T18:33:16Z</time>
      </trkpt>
      <trkpt lat="56.34734" lon="13.6342866">
        <ele>106.844</ele>
        <time>2014-05-07T18:33:20Z</time>
      </trkpt>
      <trkpt lat="56.3473498" lon="13.6343474">
        <ele>107.324</ele>
        <time>2014-05-07T18:33:24Z</time>
      </trkpt>
      <trkpt lat="56.3473481" lon="13.6344417">
        <ele>108.286</ele>
        <time>2014-05-07T18:33:29Z</time>
      </trkpt>
      <trkpt lat="56.347338" lon="13.6345416">
        <ele>107.324</ele>
        <time>2014-05-07T18:33:34Z</time>
      </trkpt>
      <trkpt lat="56.3473051" lon="13.6346923">
        <ele>108.286</ele>
        <time>2014-05-07T18:33:38Z</time>
      </trkpt>
      <trkpt lat="56.3472898" lon="13.6347918">
        <ele>109.247</ele>
        <time>2014-05-07T18:33:41Z</time>
      </trkpt>
      <trkpt lat="56.3473235" lon="13.634939">
        <ele>109.728</ele>
        <time>2014-05-07T18:33:46Z</time>
      </trkpt>
      <trkpt lat="56.3473467" lon="13.634969">
        <ele>109.728</ele>
        <time>2014-05-07T18:33:47Z</time>
      </trkpt>
      <trkpt lat="56.3474147" lon="13.6350887">
        <ele>109.247</ele>
        <time>2014-05-07T18:33:52Z</time>
      </trkpt>
      <trkpt lat="56.3474478" lon="13.6351771">
        <ele>109.247</ele>
        <time>2014-05-07T18:33:55Z</time>
      </trkpt>
      <trkpt lat="56.3474918" lon="13.6352573">
        <ele>107.324</ele>
        <time>2014-05-07T18:34:00Z</time>
      </trkpt>
      <trkpt lat="56.3475104" lon="13.6353591">
        <ele>107.324</ele>
        <time>2014-05-07T18:34:05Z</time>
      </trkpt>
      <trkpt lat="56.3475193" lon="13.6353875">
        <ele>107.324</ele>
        <time>2014-05-07T18:34:07Z</time>
      </trkpt>
      <trkpt lat="56.3475467" lon="13.6354539">
        <ele>106.844</ele>
        <time>2014-05-07T18:34:11Z</time>
      </trkpt>
      <trkpt lat="56.3475737" lon="13.6355055">
        <ele>107.324</ele>
        <time>2014-05-07T18:34:15Z</time>
      </trkpt>
      <trkpt lat="56.3476229" lon="13.6355481">
        <ele>108.766</ele>
        <time>2014-05-07T18:34:20Z</time>
      </trkpt>
      <trkpt lat="56.3476465" lon="13.6355746">
        <ele>110.208</ele>
        <time>2014-05-07T18:34:23Z</time>
      </trkpt>
      <trkpt lat="56.3476572" lon="13.6356847">
        <ele>111.17</ele>
        <time>2014-05-07T18:34:29Z</time>
      </trkpt>
      <trkpt lat="56.3476444" lon="13.6357258">
        <ele>111.17</ele>
        <time>2014-05-07T18:34:31Z</time>
      </trkpt>
      <trkpt lat="56.3476001" lon="13.6358446">
        <ele>109.728</ele>
        <time>2014-05-07T18:34:35Z</time>
      </trkpt>
      <trkpt lat="56.3475598" lon="13.6360331">
        <ele>110.208</ele>
        <time>2014-05-07T18:34:40Z</time>
      </trkpt>
      <trkpt lat="56.347469" lon="13.6361957">
        <ele>110.208</ele>
        <time>2014-05-07T18:34:45Z</time>
      </trkpt>
      <trkpt lat="56.3473067" lon="13.6363786">
        <ele>111.17</ele>
        <time>2014-05-07T18:34:51Z</time>
      </trkpt>
      <trkpt lat="56.3471768" lon="13.6364956">
        <ele>112.131</ele>
        <time>2014-05-07T18:34:56Z</time>
      </trkpt>
      <trkpt lat="56.3470871" lon="13.6365603">
        <ele>112.131</ele>
        <time>2014-05-07T18:35:00Z</time>
      </trkpt>
      <trkpt lat="56.3470276" lon="13.6366164">
        <ele>112.612</ele>
        <time>2014-05-07T18:35:04Z</time>
      </trkpt>
      <trkpt lat="56.3469079" lon="13.6367723">
        <ele>113.092</ele>
        <time>2014-05-07T18:35:10Z</time>
      </trkpt>
      <trkpt lat="56.3468078" lon="13.6369223">
        <ele>113.092</ele>
        <time>2014-05-07T18:35:15Z</time>
      </trkpt>
      <trkpt lat="56.3467229" lon="13.6370753">
        <ele>113.092</ele>
        <time>2014-05-07T18:35:20Z</time>
      </trkpt>
      <trkpt lat="56.3466253" lon="13.6372449">
        <ele>113.573</ele>
        <time>2014-05-07T18:35:25Z</time>
      </trkpt>
      <trkpt lat="56.3465879" lon="13.6373109">
        <ele>113.573</ele>
        <time>2014-05-07T18:35:27Z</time>
      </trkpt>
      <trkpt lat="56.3464293" lon="13.6374451">
        <ele>114.054</ele>
        <time>2014-05-07T18:35:33Z</time>
      </trkpt>
      <trkpt lat="56.3464014" lon="13.6374653">
        <ele>114.534</ele>
        <time>2014-05-07T18:35:34Z</time>
      </trkpt>
      <trkpt lat="56.3462191" lon="13.6375238">
        <ele>115.015</ele>
        <time>2014-05-07T18:35:41Z</time>
      </trkpt>
      <trkpt lat="56.3461251" lon="13.6375965">
        <ele>115.015</ele>
        <time>2014-05-07T18:35:45Z</time>
      </trkpt>
      <trkpt lat="56.3460259" lon="13.6376974">
        <ele>115.496</ele>
        <time>2014-05-07T18:35:49Z</time>
      </trkpt>
      <trkpt lat="56.345947" lon="13.6378062">
        <ele>115.976</ele>
        <time>2014-05-07T18:35:54Z</time>
      </trkpt>
      <trkpt lat="56.3458969" lon="13.6379197">
        <ele>116.938</ele>
        <time>2014-05-07T18:35:59Z</time>
      </trkpt>
      <trkpt lat="56.3458825" lon="13.6379428">
        <ele>117.418</ele>
        <time>2014-05-07T18:36:00Z</time>
      </trkpt>
      <trkpt lat="56.3457698" lon="13.6380895">
        <ele>117.899</ele>
        <time>2014-05-07T18:36:07Z</time>
      </trkpt>
      <trkpt lat="56.345711" lon="13.6381595">
        <ele>117.899</ele>
        <time>2014-05-07T18:36:11Z</time>
      </trkpt>
      <trkpt lat="56.3456487" lon="13.6383381">
        <ele>118.379</ele>
        <time>2014-05-07T18:36:16Z</time>
      </trkpt>
      <trkpt lat="56.3456234" lon="13.638423">
        <ele>118.379</ele>
        <time>2014-05-07T18:36:18Z</time>
      </trkpt>
      <trkpt lat="56.3455691" lon="13.6386313">
        <ele>117.899</ele>
        <time>2014-05-07T18:36:23Z</time>
      </trkpt>
      <trkpt lat="56.3455488" lon="13.6388582">
        <ele>117.899</ele>
        <time>2014-05-07T18:36:28Z</time>
      </trkpt>
      <trkpt lat="56.3455284" lon="13.6389544">
        <ele>117.418</ele>
        <time>2014-05-07T18:36:30Z</time>
      </trkpt>
      <trkpt lat="56.3455302" lon="13.6391276">
        <ele>117.899</ele>
        <time>2014-05-07T18:36:34Z</time>
      </trkpt>
      <trkpt lat="56.3455548" lon="13.6395361">
        <ele>118.379</ele>
        <time>2014-05-07T18:36:42Z</time>
      </trkpt>
      <trkpt lat="56.3455772" lon="13.639859">
        <ele>118.86</ele>
        <time>2014-05-07T18:36:48Z</time>
      </trkpt>
      <trkpt lat="56.3455799" lon="13.640057">
        <ele>118.379</ele>
        <time>2014-05-07T18:36:52Z</time>
      </trkpt>
      <trkpt lat="56.3455843" lon="13.640323">
        <ele>117.899</ele>
        <time>2014-05-07T18:36:58Z</time>
      </trkpt>
      <trkpt lat="56.3456038" lon="13.6405957">
        <ele>117.418</ele>
        <time>2014-05-07T18:37:04Z</time>
      </trkpt>
      <trkpt lat="56.3456119" lon="13.6407826">
        <ele>117.418</ele>
        <time>2014-05-07T18:37:08Z</time>
      </trkpt>
      <trkpt lat="56.3456265" lon="13.6410953">
        <ele>117.899</ele>
        <time>2014-05-07T18:37:14Z</time>
      </trkpt>
      <trkpt lat="56.3456429" lon="13.64139">
        <ele>117.899</ele>
        <time>2014-05-07T18:37:20Z</time>
      </trkpt>
      <trkpt lat="56.3457004" lon="13.6417006">
        <ele>117.418</ele>
        <time>2014-05-07T18:37:27Z</time>
      </trkpt>
      <trkpt lat="56.3457897" lon="13.6419516">
        <ele>117.418</ele>
        <time>2014-05-07T18:37:33Z</time>
      </trkpt>
      <trkpt lat="56.3458467" lon="13.6421429">
        <ele>116.938</ele>
        <time>2014-05-07T18:37:38Z</time>
      </trkpt>
      <trkpt lat="56.3459255" lon="13.6423696">
        <ele>116.457</ele>
        <time>2014-05-07T18:37:44Z</time>
      </trkpt>
      <trkpt lat="56.3459523" lon="13.6424729">
        <ele>116.457</ele>
        <time>2014-05-07T18:37:47Z</time>
      </trkpt>
      <trkpt lat="56.3459985" lon="13.6426019">
        <ele>116.938</ele>
        <time>2014-05-07T18:37:51Z</time>
      </trkpt>
      <trkpt lat="56.3460492" lon="13.6427688">
        <ele>115.976</ele>
        <time>2014-05-07T18:37:56Z</time>
      </trkpt>
      <trkpt lat="56.3460616" lon="13.6427982">
        <ele>115.976</ele>
        <time>2014-05-07T18:37:57Z</time>
      </trkpt>
      <trkpt lat="56.3460961" lon="13.642894">
        <ele>115.496</ele>
        <time>2014-05-07T18:38:00Z</time>
      </trkpt>
      <trkpt lat="56.3461387" lon="13.643028">
        <ele>115.496</ele>
        <time>2014-05-07T18:38:04Z</time>
      </trkpt>
      <trkpt lat="56.3462209" lon="13.6432795">
        <ele>116.938</ele>
        <time>2014-05-07T18:38:11Z</time>
      </trkpt>
      <trkpt lat="56.3462828" lon="13.6434668">
        <ele>117.899</ele>
        <time>2014-05-07T18:38:16Z</time>
      </trkpt>
      <trkpt lat="56.3463155" lon="13.6435465">
        <ele>118.379</ele>
        <time>2014-05-07T18:38:18Z</time>
      </trkpt>
      <trkpt lat="56.3464279" lon="13.6437104">
        <ele>118.379</ele>
        <time>2014-05-07T18:38:24Z</time>
      </trkpt>
      <trkpt lat="56.3465471" lon="13.6438825">
        <ele>117.899</ele>
        <time>2014-05-07T18:38:30Z</time>
      </trkpt>
      <trkpt lat="56.3466186" lon="13.6439899">
        <ele>118.379</ele>
        <time>2014-05-07T18:38:34Z</time>
      </trkpt>
      <trkpt lat="56.34674" lon="13.6441286">
        <ele>117.899</ele>
        <time>2014-05-07T18:38:40Z</time>
      </trkpt>
      <trkpt lat="56.3468609" lon="13.644273">
        <ele>117.899</ele>
        <time>2014-05-07T18:38:46Z</time>
      </trkpt>
      <trkpt lat="56.3470168" lon="13.6444351">
        <ele>118.379</ele>
        <time>2014-05-07T18:38:54Z</time>
      </trkpt>
      <trkpt lat="56.3471302" lon="13.6445449">
        <ele>118.379</ele>
        <time>2014-05-07T18:38:59Z</time>
      </trkpt>
      <trkpt lat="56.3472888" lon="13.6446511">
        <ele>119.341</ele>
        <time>2014-05-07T18:39:05Z</time>
      </trkpt>
      <trkpt lat="56.3474037" lon="13.6446882">
        <ele>119.341</ele>
        <time>2014-05-07T18:39:10Z</time>
      </trkpt>
      <trkpt lat="56.3474732" lon="13.6447091">
        <ele>118.379</ele>
        <time>2014-05-07T18:39:14Z</time>
      </trkpt>
      <trkpt lat="56.3475817" lon="13.644767">
        <ele>117.418</ele>
        <time>2014-05-07T18:39:19Z</time>
      </trkpt>
      <trkpt lat="56.3476865" lon="13.6447821">
        <ele>116.457</ele>
        <time>2014-05-07T18:39:23Z</time>
      </trkpt>
      <trkpt lat="56.3478632" lon="13.6449239">
        <ele>116.938</ele>
        <time>2014-05-07T18:39:30Z</time>
      </trkpt>
      <trkpt lat="56.3480399" lon="13.6450562">
        <ele>118.379</ele>
        <time>2014-05-07T18:39:37Z</time>
      </trkpt>
      <trkpt lat="56.3481923" lon="13.6451629">
        <ele>119.341</ele>
        <time>2014-05-07T18:39:43Z</time>
      </trkpt>
      <trkpt lat="56.3483486" lon="13.6452567">
        <ele>120.302</ele>
        <time>2014-05-07T18:39:49Z</time>
      </trkpt>
      <trkpt lat="56.3484683" lon="13.6453551">
        <ele>120.783</ele>
        <time>2014-05-07T18:39:54Z</time>
      </trkpt>
      <trkpt lat="56.3486211" lon="13.6454599">
        <ele>120.302</ele>
        <time>2014-05-07T18:40:00Z</time>
      </trkpt>
      <trkpt lat="56.3487452" lon="13.6455292">
        <ele>119.821</ele>
        <time>2014-05-07T18:40:05Z</time>
      </trkpt>
      <trkpt lat="56.3488801" lon="13.6456267">
        <ele>120.302</ele>
        <time>2014-05-07T18:40:10Z</time>
      </trkpt>
      <trkpt lat="56.3490646" lon="13.6457364">
        <ele>121.744</ele>
        <time>2014-05-07T18:40:17Z</time>
      </trkpt>
      <trkpt lat="56.3491562" lon="13.6457901">
        <ele>121.744</ele>
        <time>2014-05-07T18:40:21Z</time>
      </trkpt>
      <trkpt lat="56.3492267" lon="13.6459031">
        <ele>121.264</ele>
        <time>2014-05-07T18:40:25Z</time>
      </trkpt>
      <trkpt lat="56.3492344" lon="13.6459939">
        <ele>121.264</ele>
        <time>2014-05-07T18:40:27Z</time>
      </trkpt>
      <trkpt lat="56.3491344" lon="13.646201">
        <ele>122.225</ele>
        <time>2014-05-07T18:40:34Z</time>
      </trkpt>
      <trkpt lat="56.3490272" lon="13.6463553">
        <ele>123.186</ele>
        <time>2014-05-07T18:40:41Z</time>
      </trkpt>
    </trkseg>
  </trk>
</gpx>